Time;durP1;ratioP1;P1;durP2;ratioP2;P2;SDS_P1;SDS_P2;PMS_P1;PMS_P2;Temp;Humidity;BMP_temperature;BMP_pressure;BME280_temperature;BME280_humidity;BME280_pressure;Samples;Min_cycle;Max_cycle;Signal;HPM_P1;HPM_P2
2021/09/12 00:00:53;;;;;;;9.23;4.38;;;;;;;;;;5016488;28;20018;-39
2021/09/12 00:03:18;;;;;;;5.30;4.20;;;;;;;;;;5016059;28;20068;-38
2021/09/12 00:05:44;;;;;;;6.30;4.93;;;;;;;;;;5031544;28;20491;-38
2021/09/12 00:08:09;;;;;;;10.88;4.63;;;;;;;;;;5016314;28;20018;-39
2021/09/12 00:10:35;;;;;;;6.53;4.45;;;;;;;;;;5015936;28;20030;-39
2021/09/12 00:13:00;;;;;;;5.63;3.75;;;;;;;;;;5016426;28;20117;-38
2021/09/12 00:15:26;;;;;;;10.57;4.55;;;;;;;;;;5015984;28;20022;-38
2021/09/12 00:17:51;;;;;;;6.57;4.60;;;;;;;;;;5016279;28;20111;-38
2021/09/12 00:20:17;;;;;;;10.63;4.15;;;;;;;;;;5015996;28;20018;-38
2021/09/12 00:22:42;;;;;;;7.10;4.00;;;;;;;;;;5015828;28;20468;-39
2021/09/12 00:25:08;;;;;;;5.75;4.40;;;;;;;;;;5015962;28;20484;-39
2021/09/12 00:27:34;;;;;;;5.57;4.70;;;;;;;;;;5016119;28;20061;-39
2021/09/12 00:29:59;;;;;;;6.35;4.82;;;;;;;;;;5016053;28;20026;-38
2021/09/12 00:32:25;;;;;;;6.60;3.90;;;;;;;;;;5016021;28;20033;-39
2021/09/12 00:34:50;;;;;;;7.47;5.00;;;;;;;;;;5015702;28;20021;-38
2021/09/12 00:37:16;;;;;;;5.53;4.63;;;;;;;;;;5015834;28;20049;-38
2021/09/12 00:39:41;;;;;;;7.50;5.00;;;;;;;;;;5015992;28;20048;-38
2021/09/12 00:42:07;;;;;;;9.43;4.70;;;;;;;;;;5015525;28;20033;-38
2021/09/12 00:44:32;;;;;;;6.25;3.95;;;;;;;;;;5015309;28;20049;-38
2021/09/12 00:47:07;;;;;;;8.95;4.78;;;;;;;;;;5047405;28;20109;-38
2021/09/12 00:49:32;;;;;;;3.72;2.90;;;;;;;;;;5015440;28;20109;-41
2021/09/12 00:51:58;;;;;;;7.70;4.53;;;;;;;;;;5015623;28;20517;-41
2021/09/12 00:54:24;;;;;;;5.03;3.75;;;;;;;;;;5015198;28;20059;-41
2021/09/12 00:56:49;;;;;;;8.82;4.25;;;;;;;;;;5015356;28;20022;-41
2021/09/12 00:59:16;;;;;;;7.00;5.05;;;;;;;;;;5015233;28;20037;-41
2021/09/12 01:01:42;;;;;;;6.80;4.28;;;;;;;;;;5015284;28;20017;-41
2021/09/12 01:04:07;;;;;;;6.43;4.95;;;;;;;;;;5014648;28;20033;-39
2021/09/12 01:06:33;;;;;;;5.30;4.25;;;;;;;;;;5015278;28;20462;-38
2021/09/12 01:08:59;;;;;;;8.30;4.70;;;;;;;;;;5015403;28;20030;-39
2021/09/12 01:11:24;;;;;;;8.77;4.90;;;;;;;;;;5015269;28;20350;-39
2021/09/12 01:13:49;;;;;;;5.97;4.78;;;;;;;;;;5014954;28;20034;-39
2021/09/12 01:16:18;;;;;;;9.85;4.57;;;;;;;;;;5014966;28;20010;-40
2021/09/12 01:18:44;;;;;;;7.18;4.63;;;;;;;;;;5014921;28;20092;-40
2021/09/12 01:21:11;;;;;;;6.22;4.93;;;;;;;;;;5014863;28;20018;-39
2021/09/12 01:23:36;;;;;;;5.93;4.22;;;;;;;;;;5014979;28;20129;-40
2021/09/12 01:26:02;;;;;;;8.23;4.72;;;;;;;;;;5013496;28;20441;-40
2021/09/12 01:28:27;;;;;;;8.98;4.53;;;;;;;;;;5014671;28;20087;-39
2021/09/12 01:30:53;;;;;;;6.35;4.50;;;;;;;;;;5014711;28;20059;-39
2021/09/12 01:33:18;;;;;;;6.05;4.40;;;;;;;;;;5014823;28;20091;-39
2021/09/12 01:35:44;;;;;;;6.90;4.45;;;;;;;;;;5014752;28;20017;-39
2021/09/12 01:38:09;;;;;;;7.32;6.18;;;;;;;;;;5014535;28;20033;-39
2021/09/12 01:40:34;;;;;;;9.60;5.22;;;;;;;;;;5014507;28;20024;-39
2021/09/12 01:43:00;;;;;;;7.00;4.28;;;;;;;;;;5014578;28;20033;-39
2021/09/12 01:45:25;;;;;;;5.30;4.70;;;;;;;;;;5014216;28;20100;-39
2021/09/12 01:47:51;;;;;;;6.30;4.72;;;;;;;;;;5014692;28;20362;-38
2021/09/12 01:50:17;;;;;;;5.97;4.70;;;;;;;;;;5014254;28;20022;-39
2021/09/12 01:52:42;;;;;;;5.30;4.35;;;;;;;;;;5014585;28;20026;-39
2021/09/12 01:55:08;;;;;;;10.20;4.85;;;;;;;;;;5014166;28;20552;-39
2021/09/12 01:57:34;;;;;;;6.78;4.75;;;;;;;;;;5014592;28;20377;-39
2021/09/12 01:59:59;;;;;;;10.07;5.15;;;;;;;;;;5014133;28;20017;-39
2021/09/12 02:02:25;;;;;;;8.15;4.40;;;;;;;;;;5014222;28;20034;-39
2021/09/12 02:04:50;;;;;;;11.43;4.40;;;;;;;;;;5014245;28;20113;-39
2021/09/12 02:07:15;;;;;;;9.52;4.88;;;;;;;;;;5014035;28;20137;-39
2021/09/12 02:09:41;;;;;;;5.70;4.25;;;;;;;;;;5013843;28;20084;-40
2021/09/12 02:12:06;;;;;;;10.57;4.78;;;;;;;;;;5014216;28;20088;-39
2021/09/12 02:14:32;;;;;;;4.88;3.88;;;;;;;;;;5014027;28;20386;-39
2021/09/12 02:16:57;;;;;;;5.10;4.18;;;;;;;;;;5013035;28;20022;-39
2021/09/12 02:19:22;;;;;;;6.47;4.65;;;;;;;;;;5013809;28;20079;-39
2021/09/12 02:21:48;;;;;;;4.57;4.07;;;;;;;;;;5013958;28;20030;-41
2021/09/12 02:24:13;;;;;;;10.80;4.40;;;;;;;;;;5013881;28;20503;-41
2021/09/12 02:26:38;;;;;;;5.70;4.57;;;;;;;;;;5013648;28;20041;-39
2021/09/12 02:29:04;;;;;;;10.27;5.03;;;;;;;;;;5013590;28;20014;-40
2021/09/12 02:31:29;;;;;;;8.00;4.65;;;;;;;;;;5013751;28;20050;-41
2021/09/12 02:33:55;;;;;;;4.40;3.83;;;;;;;;;;5013439;28;20354;-40
2021/09/12 02:36:20;;;;;;;5.20;4.07;;;;;;;;;;5013739;28;20069;-40
2021/09/12 02:38:45;;;;;;;6.00;4.63;;;;;;;;;;5013417;28;20117;-40
2021/09/12 02:41:11;;;;;;;8.63;4.15;;;;;;;;;;5013370;28;20037;-41
2021/09/12 02:43:36;;;;;;;5.32;4.35;;;;;;;;;;5013168;28;20033;-40
2021/09/12 02:46:01;;;;;;;10.57;5.43;;;;;;;;;;5013223;28;20554;-40
2021/09/12 02:48:27;;;;;;;6.47;5.57;;;;;;;;;;5013204;28;20030;-40
2021/09/12 02:50:52;;;;;;;5.50;4.15;;;;;;;;;;5013302;28;20034;-40
2021/09/12 02:53:18;;;;;;;5.22;4.43;;;;;;;;;;5013072;28;20022;-40
2021/09/12 02:55:43;;;;;;;7.63;4.95;;;;;;;;;;5013169;28;20041;-40
2021/09/12 02:58:08;;;;;;;4.90;4.13;;;;;;;;;;5013168;28;20075;-40
2021/09/12 03:00:34;;;;;;;4.80;4.18;;;;;;;;;;5013141;28;20046;-39
2021/09/12 03:02:59;;;;;;;6.57;4.47;;;;;;;;;;5012984;28;20051;-39
2021/09/12 03:05:25;;;;;;;5.82;4.28;;;;;;;;;;5013136;28;20042;-39
2021/09/12 03:07:50;;;;;;;5.47;4.38;;;;;;;;;;5012957;28;20018;-39
2021/09/12 03:10:16;;;;;;;4.47;3.92;;;;;;;;;;5012905;28;20168;-39
2021/09/12 03:12:41;;;;;;;5.80;4.20;;;;;;;;;;5013165;28;20147;-39
2021/09/12 03:15:07;;;;;;;5.60;4.43;;;;;;;;;;5012744;28;20404;-39
2021/09/12 03:17:33;;;;;;;7.70;4.53;;;;;;;;;;5013110;28;20401;-38
2021/09/12 03:19:58;;;;;;;7.95;5.13;;;;;;;;;;5012763;28;20096;-39
2021/09/12 03:22:23;;;;;;;5.88;4.72;;;;;;;;;;5012580;28;20026;-39
2021/09/12 03:24:49;;;;;;;8.73;5.80;;;;;;;;;;5012853;28;20087;-39
2021/09/12 03:27:14;;;;;;;5.07;4.13;;;;;;;;;;5012643;28;20014;-39
2021/09/12 03:29:40;;;;;;;10.38;4.00;;;;;;;;;;5012862;28;20101;-39
2021/09/12 03:32:05;;;;;;;5.47;4.28;;;;;;;;;;5012958;28;20049;-39
2021/09/12 03:34:31;;;;;;;5.75;4.57;;;;;;;;;;5012837;28;20053;-38
2021/09/12 03:36:56;;;;;;;7.07;4.80;;;;;;;;;;5012871;28;20377;-40
2021/09/12 03:39:21;;;;;;;6.28;4.45;;;;;;;;;;5012534;28;20029;-39
2021/09/12 03:41:47;;;;;;;7.38;5.28;;;;;;;;;;5027755;28;20022;-39
2021/09/12 03:44:12;;;;;;;5.90;4.03;;;;;;;;;;5012187;28;20128;-39
2021/09/12 03:46:38;;;;;;;6.25;4.78;;;;;;;;;;5012720;28;20054;-39
2021/09/12 03:49:03;;;;;;;8.57;5.00;;;;;;;;;;5012457;28;20173;-39
2021/09/12 03:51:29;;;;;;;5.22;4.40;;;;;;;;;;5012312;28;20029;-38
2021/09/12 03:53:54;;;;;;;6.55;4.68;;;;;;;;;;5012417;28;20041;-39
2021/09/12 03:56:19;;;;;;;7.03;5.57;;;;;;;;;;5027525;28;20018;-39
2021/09/12 03:58:45;;;;;;;10.75;4.43;;;;;;;;;;5012673;28;20030;-39
2021/09/12 04:01:10;;;;;;;12.52;5.85;;;;;;;;;;5012483;28;20018;-39
2021/09/12 04:03:35;;;;;;;7.22;4.63;;;;;;;;;;5012072;28;20081;-39
2021/09/12 04:06:01;;;;;;;7.53;5.20;;;;;;;;;;5012462;28;20025;-39
2021/09/12 04:08:26;;;;;;;5.30;4.80;;;;;;;;;;5010984;28;20099;-39
2021/09/12 04:10:51;;;;;;;5.40;4.63;;;;;;;;;;5012310;28;20105;-39
2021/09/12 04:13:17;;;;;;;6.40;4.30;;;;;;;;;;5012059;28;20096;-39
2021/09/12 04:15:42;;;;;;;4.57;4.05;;;;;;;;;;5012379;28;20106;-39
2021/09/12 04:18:08;;;;;;;9.68;4.30;;;;;;;;;;5012490;28;20483;-39
2021/09/12 04:20:33;;;;;;;6.03;4.75;;;;;;;;;;5012266;28;20028;-39
2021/09/12 04:22:58;;;;;;;5.32;4.38;;;;;;;;;;5012025;28;20026;-39
2021/09/12 04:25:24;;;;;;;6.25;4.47;;;;;;;;;;5012116;28;20030;-38
2021/09/12 04:27:49;;;;;;;8.35;4.55;;;;;;;;;;5012180;28;20036;-39
2021/09/12 04:30:15;;;;;;;6.57;4.82;;;;;;;;;;5012426;28;20022;-39
2021/09/12 04:32:41;;;;;;;8.18;4.68;;;;;;;;;;5012039;28;20380;-39
2021/09/12 04:35:06;;;;;;;4.72;4.22;;;;;;;;;;5012261;28;20026;-39
2021/09/12 04:37:32;;;;;;;6.45;4.32;;;;;;;;;;5012052;28;20175;-39
2021/09/12 04:39:57;;;;;;;4.93;4.18;;;;;;;;;;5013531;28;20025;-39
2021/09/12 04:42:22;;;;;;;8.48;4.30;;;;;;;;;;5015838;28;20041;-40
2021/09/12 04:44:48;;;;;;;7.82;4.90;;;;;;;;;;5015400;28;20054;-39
2021/09/12 04:47:13;;;;;;;6.10;3.70;;;;;;;;;;5015477;28;20040;-39
2021/09/12 04:49:39;;;;;;;6.78;4.20;;;;;;;;;;5015518;28;20018;-39
2021/09/12 04:52:04;;;;;;;5.13;3.83;;;;;;;;;;5015498;28;20400;-39
2021/09/12 04:54:30;;;;;;;8.57;5.15;;;;;;;;;;5015261;28;20018;-39
2021/09/12 04:56:55;;;;;;;6.15;4.50;;;;;;;;;;5015439;28;20034;-39
2021/09/12 04:59:20;;;;;;;8.18;4.25;;;;;;;;;;5015508;28;20100;-39
2021/09/12 05:01:46;;;;;;;7.65;4.85;;;;;;;;;;5015173;28;20468;-39
2021/09/12 05:04:11;;;;;;;7.00;5.05;;;;;;;;;;5015197;28;20069;-40
2021/09/12 05:06:37;;;;;;;5.97;4.60;;;;;;;;;;5015097;28;20053;-40
2021/09/12 05:09:02;;;;;;;6.53;4.50;;;;;;;;;;5015201;28;20038;-41
2021/09/12 05:11:27;;;;;;;10.45;4.80;;;;;;;;;;5014909;28;20061;-41
2021/09/12 05:13:53;;;;;;;4.88;4.03;;;;;;;;;;5015335;28;20018;-41
2021/09/12 05:16:18;;;;;;;6.28;4.32;;;;;;;;;;5013696;28;20034;-41
2021/09/12 05:18:44;;;;;;;5.18;4.53;;;;;;;;;;5014836;28;20058;-41
2021/09/12 05:21:09;;;;;;;7.45;4.40;;;;;;;;;;5015225;28;20081;-41
2021/09/12 05:23:34;;;;;;;7.32;4.93;;;;;;;;;;5014851;28;20174;-40
2021/09/12 05:26:00;;;;;;;8.15;4.70;;;;;;;;;;5014786;28;20113;-39
2021/09/12 05:28:25;;;;;;;5.70;4.32;;;;;;;;;;5014771;28;20026;-39
2021/09/12 05:30:51;;;;;;;5.80;4.30;;;;;;;;;;5014684;28;20026;-40
2021/09/12 05:33:16;;;;;;;10.77;5.10;;;;;;;;;;5014685;28;20022;-39
2021/09/12 05:35:42;;;;;;;5.93;4.57;;;;;;;;;;5014561;28;20120;-39
2021/09/12 05:38:07;;;;;;;8.38;4.88;;;;;;;;;;5014508;28;20108;-39
2021/09/12 05:40:33;;;;;;;6.85;4.80;;;;;;;;;;5014821;28;20033;-40
2021/09/12 05:42:58;;;;;;;5.75;4.65;;;;;;;;;;5013093;28;20033;-39
2021/09/12 05:45:24;;;;;;;6.20;4.82;;;;;;;;;;5014254;28;20058;-39
2021/09/12 05:47:49;;;;;;;5.32;4.10;;;;;;;;;;5014426;28;20100;-38
2021/09/12 05:50:15;;;;;;;6.68;4.35;;;;;;;;;;5014175;28;20040;-39
2021/09/12 05:52:40;;;;;;;6.05;4.75;;;;;;;;;;5013490;28;20018;-39
2021/09/12 05:55:06;;;;;;;7.47;5.68;;;;;;;;;;5014270;28;20022;-39
2021/09/12 05:57:31;;;;;;;6.80;4.85;;;;;;;;;;5014376;28;20495;-39
2021/09/12 05:59:57;;;;;;;9.40;4.57;;;;;;;;;;5014274;28;20033;-39
2021/09/12 06:02:22;;;;;;;6.05;4.60;;;;;;;;;;5014048;28;20050;-39
2021/09/12 06:04:48;;;;;;;6.72;5.53;;;;;;;;;;5014269;28;20042;-38
2021/09/12 06:07:13;;;;;;;5.15;4.47;;;;;;;;;;5014116;28;20519;-39
2021/09/12 06:09:39;;;;;;;4.75;4.18;;;;;;;;;;5013893;28;20037;-39
2021/09/12 06:12:08;;;;;;;6.45;4.80;;;;;;;;;;5014197;28;20024;-39
2021/09/12 06:14:34;;;;;;;6.18;4.43;;;;;;;;;;5014055;28;20064;-38
2021/09/12 06:17:01;;;;;;;6.78;4.90;;;;;;;;;;5014199;28;20018;-39
2021/09/12 06:19:27;;;;;;;5.75;4.80;;;;;;;;;;5013701;28;20025;-38
2021/09/12 06:21:52;;;;;;;6.93;4.43;;;;;;;;;;5013671;28;20068;-38
2021/09/12 06:24:17;;;;;;;5.72;4.07;;;;;;;;;;5013663;28;20046;-38
2021/09/12 06:26:43;;;;;;;5.72;4.53;;;;;;;;;;5013593;28;20041;-38
2021/09/12 06:29:08;;;;;;;5.40;4.40;;;;;;;;;;5013760;28;20112;-38
2021/09/12 06:31:33;;;;;;;5.30;4.30;;;;;;;;;;5013585;28;20424;-38
2021/09/12 06:33:59;;;;;;;5.65;4.50;;;;;;;;;;5013458;28;20116;-38
2021/09/12 06:36:24;;;;;;;8.50;5.05;;;;;;;;;;5028694;28;20018;-38
2021/09/12 06:38:50;;;;;;;9.15;5.07;;;;;;;;;;5013520;28;20088;-38
2021/09/12 06:41:15;;;;;;;5.60;4.35;;;;;;;;;;5013394;28;20022;-38
2021/09/12 06:43:40;;;;;;;6.38;4.85;;;;;;;;;;5013120;28;20049;-38
2021/09/12 06:46:06;;;;;;;5.93;4.38;;;;;;;;;;5013337;28;20087;-38
2021/09/12 06:48:31;;;;;;;5.00;4.53;;;;;;;;;;5013255;28;20044;-38
2021/09/12 06:50:57;;;;;;;6.43;4.50;;;;;;;;;;5013317;28;20021;-38
2021/09/12 06:53:23;;;;;;;8.77;4.93;;;;;;;;;;5013116;28;20022;-38
2021/09/12 06:55:49;;;;;;;6.60;4.68;;;;;;;;;;5013446;28;20021;-39
2021/09/12 06:58:16;;;;;;;6.28;4.03;;;;;;;;;;5013445;28;20061;-39
2021/09/12 07:00:41;;;;;;;9.15;4.57;;;;;;;;;;5013362;28;20029;-38
2021/09/12 07:03:07;;;;;;;6.88;4.13;;;;;;;;;;5011314;28;20491;-39
2021/09/12 07:05:32;;;;;;;6.07;4.25;;;;;;;;;;5012938;28;20455;-38
2021/09/12 07:07:58;;;;;;;5.38;4.32;;;;;;;;;;5013032;28;20064;-38
2021/09/12 07:10:23;;;;;;;5.25;4.47;;;;;;;;;;5012820;28;20032;-39
2021/09/12 07:12:48;;;;;;;5.43;4.38;;;;;;;;;;5011637;28;20083;-38
2021/09/12 07:15:14;;;;;;;8.38;4.38;;;;;;;;;;5012998;28;20376;-38
2021/09/12 07:17:39;;;;;;;4.70;4.25;;;;;;;;;;5027974;28;20446;-39
2021/09/12 07:20:05;;;;;;;7.13;4.70;;;;;;;;;;5013124;28;20072;-38
2021/09/12 07:22:30;;;;;;;6.93;4.88;;;;;;;;;;5012990;28;20495;-38
2021/09/12 07:24:56;;;;;;;5.10;4.07;;;;;;;;;;5012556;28;20030;-38
2021/09/12 07:27:21;;;;;;;5.50;4.20;;;;;;;;;;5013012;28;20064;-39
2021/09/12 07:29:46;;;;;;;4.68;4.22;;;;;;;;;;5012705;28;20101;-39
2021/09/12 07:32:12;;;;;;;9.32;3.58;;;;;;;;;;5012724;28;20034;-39
2021/09/12 07:34:37;;;;;;;4.65;4.15;;;;;;;;;;5012484;28;20029;-38
2021/09/12 07:37:03;;;;;;;7.32;3.90;;;;;;;;;;5012887;28;20034;-38
2021/09/12 07:39:29;;;;;;;5.72;4.35;;;;;;;;;;5012844;28;20030;-39
2021/09/12 07:41:56;;;;;;;5.47;3.95;;;;;;;;;;5012576;28;20107;-39
2021/09/12 07:44:21;;;;;;;5.13;3.45;;;;;;;;;;5012097;28;20493;-38
2021/09/12 07:46:47;;;;;;;4.68;3.58;;;;;;;;;;5012540;28;20041;-39
2021/09/12 07:49:12;;;;;;;6.82;4.00;;;;;;;;;;5012790;28;20101;-38
2021/09/12 07:51:37;;;;;;;11.77;4.18;;;;;;;;;;5012371;28;20366;-38
2021/09/12 07:54:03;;;;;;;12.30;4.95;;;;;;;;;;5012524;28;20100;-39
2021/09/12 07:56:28;;;;;;;4.55;3.72;;;;;;;;;;5012357;28;20026;-39
2021/09/12 07:58:53;;;;;;;5.10;4.38;;;;;;;;;;5012698;28;20022;-38
2021/09/12 08:01:19;;;;;;;7.32;3.72;;;;;;;;;;5012682;28;20026;-39
2021/09/12 08:03:44;;;;;;;5.72;3.83;;;;;;;;;;5012202;28;20485;-38
2021/09/12 08:06:10;;;;;;;5.28;3.90;;;;;;;;;;5012621;28;20080;-39
2021/09/12 08:08:36;;;;;;;9.27;3.60;;;;;;;;;;5012527;28;20457;-39
2021/09/12 08:11:01;;;;;;;6.18;3.50;;;;;;;;;;5012646;28;20488;-38
2021/09/12 08:13:26;;;;;;;5.22;3.70;;;;;;;;;;5012203;28;20060;-39
2021/09/12 08:15:52;;;;;;;7.30;4.55;;;;;;;;;;5015089;28;20080;-39
2021/09/12 08:18:19;;;;;;;6.15;4.63;;;;;;;;;;5016132;28;20018;-39
2021/09/12 08:20:45;;;;;;;7.18;3.50;;;;;;;;;;5016175;28;20041;-39
2021/09/12 08:23:11;;;;;;;8.50;4.20;;;;;;;;;;5016148;28;20018;-38
2021/09/12 08:25:36;;;;;;;5.80;4.00;;;;;;;;;;5015975;28;20113;-38
2021/09/12 08:28:02;;;;;;;6.38;3.90;;;;;;;;;;5015858;28;20018;-38
2021/09/12 08:30:27;;;;;;;5.60;4.13;;;;;;;;;;5015862;28;20079;-38
2021/09/12 08:32:53;;;;;;;5.13;3.83;;;;;;;;;;5015842;28;20022;-38
2021/09/12 08:35:18;;;;;;;14.90;5.78;;;;;;;;;;5015696;28;20080;-38
2021/09/12 08:37:43;;;;;;;9.10;4.43;;;;;;;;;;5015788;28;20052;-38
2021/09/12 08:40:10;;;;;;;7.05;3.72;;;;;;;;;;5015936;28;20495;-38
2021/09/12 08:42:36;;;;;;;9.20;3.15;;;;;;;;;;5015586;28;20022;-38
2021/09/12 08:45:02;;;;;;;6.60;3.97;;;;;;;;;;5015370;28;20141;-38
2021/09/12 08:47:28;;;;;;;4.03;2.80;;;;;;;;;;5015484;28;20026;-39
2021/09/12 08:49:54;;;;;;;8.07;4.60;;;;;;;;;;5015743;28;20034;-39
2021/09/12 08:52:19;;;;;;;5.28;3.72;;;;;;;;;;5030721;28;20432;-39
2021/09/12 08:54:45;;;;;;;9.00;3.45;;;;;;;;;;5015573;28;20034;-39
2021/09/12 08:57:10;;;;;;;4.80;2.90;;;;;;;;;;5015726;28;20036;-39
2021/09/12 08:59:36;;;;;;;4.68;3.38;;;;;;;;;;5015506;28;20117;-39
2021/09/12 09:02:03;;;;;;;7.53;3.50;;;;;;;;;;5015624;28;20024;-39
2021/09/12 09:04:29;;;;;;;3.78;3.28;;;;;;;;;;5015032;28;20049;-39
2021/09/12 09:06:58;;;;;;;7.68;3.85;;;;;;;;;;5015266;28;20033;-39
2021/09/12 09:09:36;;;;;;;4.32;2.97;;;;;;;;;;5046996;28;20073;-39
2021/09/12 09:12:18;;;;;;;5.75;3.45;;;;;;;;;;5015466;28;20151;-39
2021/09/12 09:14:43;;;;;;;3.70;2.67;;;;;;;;;;5015053;28;20108;-39
2021/09/12 09:17:18;;;;;;;7.47;3.50;;;;;;;;;;5015012;28;20128;-39
2021/09/12 09:19:53;;;;;;;4.57;3.30;;;;;;;;;;5014922;28;20036;-39
2021/09/12 09:22:29;;;;;;;3.05;2.70;;;;;;;;;;5014914;28;20042;-39
2021/09/12 09:25:20;;;;;;;5.00;2.83;;;;;;;;;;5014655;28;20100;-39
2021/09/12 09:27:49;;;;;;;3.60;3.00;;;;;;;;;;5013546;28;20141;-39
2021/09/12 09:30:14;;;;;;;5.13;2.83;;;;;;;;;;5014837;28;20018;-38
2021/09/12 09:32:40;;;;;;;6.65;2.92;;;;;;;;;;5014676;28;20033;-39
2021/09/12 09:35:05;;;;;;;4.38;3.17;;;;;;;;;;5014555;28;20469;-39
2021/09/12 09:37:31;;;;;;;5.55;2.50;;;;;;;;;;5014616;28;20421;-38
2021/09/12 09:39:56;;;;;;;9.90;3.15;;;;;;;;;;5029735;28;20046;-38
2021/09/12 09:42:31;;;;;;;4.22;3.13;;;;;;;;;;5014895;28;20116;-39
2021/09/12 09:45:01;;;;;;;3.75;2.85;;;;;;;;;;5029456;28;20547;-39
2021/09/12 09:47:27;;;;;;;4.47;3.05;;;;;;;;;;5014641;28;20033;-39
2021/09/12 09:50:15;;;;;;;4.72;3.20;;;;;;;;;;5046362;28;20354;-39
2021/09/12 09:52:42;;;;;;;4.53;3.20;;;;;;;;;;5014518;28;20377;-40
2021/09/12 09:55:08;;;;;;;3.45;2.85;;;;;;;;;;5029454;28;20384;-39
2021/09/12 09:57:34;;;;;;;3.75;2.50;;;;;;;;;;5014194;28;20044;-39
2021/09/12 10:00:00;;;;;;;4.70;3.28;;;;;;;;;;5012847;28;20029;-39
2021/09/12 10:02:25;;;;;;;4.47;3.20;;;;;;;;;;5014070;28;20029;-39
2021/09/12 10:04:51;;;;;;;5.18;3.42;;;;;;;;;;5014346;28;20041;-39
2021/09/12 10:07:17;;;;;;;5.22;3.42;;;;;;;;;;5014279;28;20066;-39
2021/09/12 10:09:43;;;;;;;4.03;3.63;;;;;;;;;;5013964;28;20129;-39
2021/09/12 10:12:10;;;;;;;3.80;2.83;;;;;;;;;;5014045;28;20156;-39
2021/09/12 10:14:40;;;;;;;4.72;3.63;;;;;;;;;;5013764;28;20021;-39
2021/09/12 10:17:11;;;;;;;5.30;3.47;;;;;;;;;;5029447;28;20026;-39
2021/09/12 10:19:38;;;;;;;5.22;3.10;;;;;;;;;;5013718;28;20033;-39
2021/09/12 10:22:11;;;;;;;3.20;2.75;;;;;;;;;;5013737;28;20037;-39
2021/09/12 10:24:56;;;;;;;5.18;3.35;;;;;;;;;;5013539;28;20044;-39
2021/09/12 10:27:34;;;;;;;4.78;2.80;;;;;;;;;;5013730;28;20384;-39
2021/09/12 10:30:16;;;;;;;4.57;3.03;;;;;;;;;;5013667;28;20052;-39
2021/09/12 10:32:42;;;;;;;4.22;3.05;;;;;;;;;;5013942;28;20108;-39
2021/09/12 10:35:19;;;;;;;5.40;3.65;;;;;;;;;;5013429;28;20571;-39
2021/09/12 10:38:01;;;;;;;4.80;3.47;;;;;;;;;;5013193;28;20498;-39
2021/09/12 10:40:53;;;;;;;8.10;3.92;;;;;;;;;;5013411;28;20105;-39
2021/09/12 10:43:25;;;;;;;3.90;3.10;;;;;;;;;;5013167;28;20037;-39
2021/09/12 10:46:06;;;;;;;4.30;2.95;;;;;;;;;;5013340;28;20503;-39
2021/09/12 10:48:41;;;;;;;6.28;3.30;;;;;;;;;;5013318;28;20037;-39
2021/09/12 10:51:26;;;;;;;4.07;3.28;;;;;;;;;;5013174;28;20037;-39
2021/09/12 10:53:55;;;;;;;4.88;3.03;;;;;;;;;;5013578;28;20044;-39
2021/09/12 10:56:20;;;;;;;4.93;3.17;;;;;;;;;;5013614;28;20033;-40
2021/09/12 10:58:49;;;;;;;3.80;2.72;;;;;;;;;;5013334;28;20381;-39
2021/09/12 11:01:53;;;;;;;5.50;3.17;;;;;;;;;;5013173;28;20083;-39
2021/09/12 11:04:18;;;;;;;;;;;;;;;;;;4991308;28;20046;-39
2021/09/12 11:06:47;;;;;;;5.03;2.90;;;;;;;;;;4991105;28;20300;-39
2021/09/12 11:09:22;;;;;;;4.68;3.45;;;;;;;;;;5001696;28;20033;-39
2021/09/12 11:11:49;;;;;;;3.97;2.90;;;;;;;;;;5044736;28;20190;-39
2021/09/12 11:14:15;;;;;;;6.15;3.40;;;;;;;;;;5012974;28;20014;-39
2021/09/12 11:16:41;;;;;;;3.45;2.72;;;;;;;;;;5012865;28;20073;-39
2021/09/12 11:19:06;;;;;;;4.65;3.08;;;;;;;;;;5012804;28;20022;-39
2021/09/12 11:21:34;;;;;;;4.05;3.05;;;;;;;;;;5012856;28;20119;-39
2021/09/12 11:24:04;;;;;;;3.58;2.83;;;;;;;;;;5012612;28;20041;-39
2021/09/12 11:26:41;;;;;;;4.72;2.80;;;;;;;;;;5012716;28;20079;-39
2021/09/12 11:29:08;;;;;;;4.28;2.65;;;;;;;;;;5012821;28;20120;-39
2021/09/12 11:31:35;;;;;;;4.80;3.00;;;;;;;;;;5012674;28;20492;-39
2021/09/12 11:34:01;;;;;;;3.90;2.55;;;;;;;;;;5012857;28;20034;-39
2021/09/12 11:36:26;;;;;;;3.38;3.08;;;;;;;;;;5012929;28;20345;-39
2021/09/12 11:38:53;;;;;;;3.90;2.95;;;;;;;;;;5012716;28;20041;-39
2021/09/12 11:41:20;;;;;;;3.83;2.97;;;;;;;;;;5012629;28;20025;-38
2021/09/12 11:43:53;;;;;;;4.90;2.72;;;;;;;;;;5012007;28;20041;-39
2021/09/12 11:46:19;;;;;;;4.70;2.42;;;;;;;;;;5012545;28;20121;-39
2021/09/12 11:48:53;;;;;;;8.50;2.80;;;;;;;;;;5013575;28;20390;-38
2021/09/12 11:51:28;;;;;;;2.70;2.50;;;;;;;;;;5016958;28;20108;-38
2021/09/12 11:54:23;;;;;;;3.67;2.80;;;;;;;;;;5031696;28;20038;-38
2021/09/12 11:56:56;;;;;;;4.22;2.80;;;;;;;;;;5012002;28;20057;-38
2021/09/12 11:59:21;;;;;;;3.65;2.22;;;;;;;;;;5016829;28;20033;-39
2021/09/12 12:01:51;;;;;;;4.10;2.85;;;;;;;;;;5016357;28;20026;-39
2021/09/12 12:04:16;;;;;;;4.18;3.20;;;;;;;;;;5031514;28;20041;-39
2021/09/12 12:06:45;;;;;;;3.15;2.35;;;;;;;;;;5016546;28;20093;-39
2021/09/12 12:09:13;;;;;;;5.43;2.75;;;;;;;;;;5048011;28;20030;-39
2021/09/12 12:11:39;;;;;;;3.20;2.20;;;;;;;;;;5016174;28;20025;-39
2021/09/12 12:14:05;;;;;;;4.35;2.95;;;;;;;;;;5016202;28;20503;-39
2021/09/12 12:16:37;;;;;;;4.38;2.92;;;;;;;;;;5016081;28;20046;-39
2021/09/12 12:19:04;;;;;;;3.38;2.42;;;;;;;;;;5016150;28;20034;-39
2021/09/12 12:21:30;;;;;;;6.97;2.35;;;;;;;;;;5016067;28;20045;-39
2021/09/12 12:23:56;;;;;;;2.83;2.38;;;;;;;;;;5015820;28;20061;-39
2021/09/12 12:26:23;;;;;;;6.03;2.40;;;;;;;;;;5016125;28;20054;-39
2021/09/12 12:28:58;;;;;;;2.85;2.17;;;;;;;;;;5016083;28;20030;-39
2021/09/12 12:31:24;;;;;;;3.05;2.40;;;;;;;;;;5016233;28;20113;-39
2021/09/12 12:33:49;;;;;;;3.13;2.17;;;;;;;;;;5016002;28;20452;-39
2021/09/12 12:36:17;;;;;;;4.40;2.05;;;;;;;;;;5015814;28;20030;-39
2021/09/12 12:38:42;;;;;;;4.45;2.72;;;;;;;;;;5015973;28;20033;-39
2021/09/12 12:41:09;;;;;;;4.47;2.65;;;;;;;;;;5015767;28;20430;-39
2021/09/12 12:43:35;;;;;;;2.95;2.28;;;;;;;;;;5015554;28;20041;-39
2021/09/12 12:46:00;;;;;;;5.38;2.35;;;;;;;;;;5014317;28;20091;-39
2021/09/12 12:48:26;;;;;;;3.35;2.33;;;;;;;;;;5047307;28;20030;-39
2021/09/12 12:50:53;;;;;;;3.10;2.35;;;;;;;;;;5015562;28;20026;-39
2021/09/12 12:53:33;;;;;;;3.42;2.42;;;;;;;;;;5015376;28;20502;-39
2021/09/12 12:56:00;;;;;;;2.92;2.42;;;;;;;;;;5047302;28;20037;-39
2021/09/12 12:58:27;;;;;;;4.03;2.65;;;;;;;;;;5015238;28;20025;-39
2021/09/12 13:00:54;;;;;;;5.07;2.95;;;;;;;;;;5014969;28;20026;-39
2021/09/12 13:03:19;;;;;;;3.28;2.60;;;;;;;;;;5015212;28;20057;-40
2021/09/12 13:05:45;;;;;;;2.35;2.10;;;;;;;;;;5015164;28;20062;-39
2021/09/12 13:08:12;;;;;;;6.15;2.42;;;;;;;;;;5015252;28;20021;-39
2021/09/12 13:10:38;;;;;;;4.10;2.30;;;;;;;;;;5015332;28;20033;-39
2021/09/12 13:13:04;;;;;;;2.58;2.10;;;;;;;;;;5015311;28;20028;-39
2021/09/12 13:15:29;;;;;;;4.28;2.70;;;;;;;;;;5015059;28;20034;-39
2021/09/12 13:17:55;;;;;;;3.60;2.60;;;;;;;;;;5015074;28;20029;-39
2021/09/12 13:20:20;;;;;;;2.67;2.22;;;;;;;;;;5015032;28;20113;-39
2021/09/12 13:22:46;;;;;;;3.72;2.65;;;;;;;;;;5014704;28;20476;-38
2021/09/12 13:25:11;;;;;;;2.55;2.30;;;;;;;;;;5014938;28;20038;-38
2021/09/12 13:27:37;;;;;;;3.53;2.20;;;;;;;;;;5046960;28;20029;-38
2021/09/12 13:30:03;;;;;;;4.50;3.03;;;;;;;;;;5014843;28;20520;-39
2021/09/12 13:32:28;;;;;;;2.55;2.28;;;;;;;;;;5014983;28;20065;-38
2021/09/12 13:34:53;;;;;;;3.10;2.38;;;;;;;;;;5014580;28;20096;-38
2021/09/12 13:37:19;;;;;;;3.75;2.35;;;;;;;;;;5014799;28;20049;-38
2021/09/12 13:39:44;;;;;;;2.55;2.05;;;;;;;;;;5014868;28;20049;-39
2021/09/12 13:42:09;;;;;;;4.35;2.50;;;;;;;;;;5014567;28;20423;-38
2021/09/12 13:44:35;;;;;;;3.83;2.75;;;;;;;;;;5014389;28;20046;-39
2021/09/12 13:47:00;;;;;;;2.38;2.10;;;;;;;;;;5014488;28;20366;-38
2021/09/12 13:49:26;;;;;;;3.40;2.67;;;;;;;;;;5014409;28;20030;-38
2021/09/12 13:51:51;;;;;;;2.90;2.60;;;;;;;;;;5014342;28;20101;-38
2021/09/12 13:54:16;;;;;;;2.75;2.08;;;;;;;;;;5014291;28;20042;-39
2021/09/12 13:56:42;;;;;;;3.15;2.53;;;;;;;;;;5014333;28;20072;-38
2021/09/12 13:59:07;;;;;;;2.80;2.53;;;;;;;;;;5014254;28;20153;-38
2021/09/12 14:01:33;;;;;;;3.35;2.50;;;;;;;;;;5014151;28;20014;-39
2021/09/12 14:03:58;;;;;;;2.92;2.20;;;;;;;;;;5014389;28;20045;-38
2021/09/12 14:06:23;;;;;;;5.43;2.70;;;;;;;;;;5014162;28;20014;-38
2021/09/12 14:08:49;;;;;;;3.08;2.53;;;;;;;;;;5013958;28;20036;-39
2021/09/12 14:11:17;;;;;;;3.72;2.60;;;;;;;;;;5014008;28;20492;-39
2021/09/12 14:13:42;;;;;;;3.50;2.53;;;;;;;;;;5012953;28;20022;-38
2021/09/12 14:16:08;;;;;;;3.58;2.50;;;;;;;;;;5014158;28;20457;-39
2021/09/12 14:18:33;;;;;;;5.78;2.58;;;;;;;;;;5014136;28;20058;-39
2021/09/12 14:20:58;;;;;;;5.72;3.22;;;;;;;;;;5013905;28;20461;-38
2021/09/12 14:23:24;;;;;;;5.78;2.63;;;;;;;;;;5013899;28;20026;-38
2021/09/12 14:25:49;;;;;;;2.42;2.22;;;;;;;;;;5013731;28;20420;-38
2021/09/12 14:28:15;;;;;;;6.63;2.53;;;;;;;;;;5013780;28;20366;-38
2021/09/12 14:30:40;;;;;;;3.50;2.33;;;;;;;;;;5013830;28;20022;-38
2021/09/12 14:33:06;;;;;;;2.85;2.42;;;;;;;;;;5013837;28;20404;-38
2021/09/12 14:35:35;;;;;;;4.38;2.83;;;;;;;;;;5013586;28;20049;-39
2021/09/12 14:38:01;;;;;;;4.35;2.38;;;;;;;;;;5013483;28;20034;-39
2021/09/12 14:40:26;;;;;;;3.85;2.42;;;;;;;;;;5013841;28;20072;-39